createdAt,value
2019-02-23T00:00:36.000Z,25.9
2019-02-23T00:02:36.000Z,26
2019-02-23T00:03:36.000Z,26
2019-02-23T00:05:36.000Z,26
2019-02-23T00:07:36.000Z,26
2019-02-23T00:08:36.000Z,26
2019-02-23T00:10:36.000Z,26
2019-02-23T00:12:36.000Z,25.9
2019-02-23T00:14:36.000Z,25.9
2019-02-23T00:15:36.000Z,25.9
2019-02-23T00:16:36.000Z,25.9
2019-02-23T00:18:36.000Z,26
2019-02-23T00:20:36.000Z,26
2019-02-23T00:21:36.000Z,26
2019-02-23T00:23:36.000Z,26
2019-02-23T00:25:36.000Z,26
2019-02-23T00:26:36.000Z,26
2019-02-23T00:27:36.000Z,26
2019-02-23T00:29:36.000Z,26
2019-02-23T00:30:36.000Z,26
2019-02-23T00:32:36.000Z,26
2019-02-23T00:34:36.000Z,26
2019-02-23T00:36:36.000Z,25.9
2019-02-23T00:38:36.000Z,25.9
2019-02-23T00:39:36.000Z,25.9
2019-02-23T00:41:36.000Z,25.9
2019-02-23T00:43:36.000Z,25.9
2019-02-23T00:45:36.000Z,25.9
2019-02-23T00:47:36.000Z,25.9
2019-02-23T00:49:35.000Z,25.9
2019-02-23T00:51:35.000Z,25.8
2019-02-23T00:52:35.000Z,25.8
2019-02-23T00:54:35.000Z,25.9
2019-02-23T00:55:35.000Z,25.9
2019-02-23T00:57:35.000Z,25.9
2019-02-23T00:58:35.000Z,25.8
2019-02-23T00:59:35.000Z,25.9
2019-02-23T01:00:35.000Z,26
2019-02-23T01:02:35.000Z,26
2019-02-23T01:04:35.000Z,26
2019-02-23T01:06:35.000Z,26
2019-02-23T01:08:35.000Z,25.9
2019-02-23T01:09:35.000Z,25.9
2019-02-23T01:11:35.000Z,26
2019-02-23T01:12:35.000Z,26
2019-02-23T01:14:35.000Z,26
2019-02-23T01:16:35.000Z,26
2019-02-23T01:18:35.000Z,25.9
2019-02-23T01:19:35.000Z,25.9
2019-02-23T01:21:35.000Z,25.8
2019-02-23T01:22:35.000Z,25.9
2019-02-23T01:24:35.000Z,25.9
2019-02-23T01:25:35.000Z,25.9
2019-02-23T01:27:35.000Z,26
2019-02-23T01:29:35.000Z,26
2019-02-23T01:30:35.000Z,26
2019-02-23T01:32:35.000Z,26
2019-02-23T01:34:35.000Z,26
2019-02-23T01:36:35.000Z,25.9
2019-02-23T01:37:35.000Z,25.9
2019-02-23T01:39:35.000Z,25.9
2019-02-23T01:41:35.000Z,25.8
2019-02-23T01:42:35.000Z,25.8
2019-02-23T01:44:35.000Z,25.8
2019-02-23T01:45:35.000Z,25.8
2019-02-23T01:47:35.000Z,25.8
2019-02-23T01:49:35.000Z,25.8
2019-02-23T01:51:35.000Z,25.7
2019-02-23T01:52:35.000Z,25.7
2019-02-23T01:54:36.000Z,25.7
2019-02-23T01:56:36.000Z,25.8
2019-02-23T01:57:36.000Z,25.8
2019-02-23T01:59:36.000Z,25.9
2019-02-23T02:00:36.000Z,25.9
2019-02-23T02:01:36.000Z,26
2019-02-23T02:03:36.000Z,26
2019-02-23T02:05:36.000Z,26
2019-02-23T02:06:36.000Z,26
2019-02-23T02:08:36.000Z,26.1
2019-02-23T02:10:36.000Z,26
2019-02-23T02:12:36.000Z,25.9
2019-02-23T02:14:36.000Z,25.7
2019-02-23T02:16:36.000Z,25.6
2019-02-23T02:17:36.000Z,25.6
2019-02-23T02:19:36.000Z,25.7
2019-02-23T02:20:36.000Z,25.7
2019-02-23T02:22:36.000Z,25.8
2019-02-23T02:24:36.000Z,25.7
2019-02-23T02:25:36.000Z,25.7
2019-02-23T02:26:36.000Z,25.8
2019-02-23T02:28:36.000Z,25.8
2019-02-23T02:29:36.000Z,25.8
2019-02-23T02:30:36.000Z,25.9
2019-02-23T02:32:36.000Z,26
2019-02-23T02:34:36.000Z,25.9
2019-02-23T02:35:36.000Z,25.9
2019-02-23T02:36:36.000Z,26
2019-02-23T02:38:36.000Z,26
2019-02-23T02:39:36.000Z,26
2019-02-23T02:40:36.000Z,26
2019-02-23T02:41:36.000Z,26.1
2019-02-23T02:43:21.000Z,26.1
2019-02-23T02:44:36.000Z,26.1
2019-02-23T02:46:36.000Z,26
2019-02-23T02:48:21.000Z,26
2019-02-23T02:49:36.000Z,25.9
2019-02-23T02:51:36.000Z,25.8
2019-02-23T02:52:36.000Z,25.8
2019-02-23T02:54:36.000Z,25.8
2019-02-23T02:56:36.000Z,25.8
2019-02-23T02:58:36.000Z,25.7
2019-02-23T02:59:36.000Z,25.7
2019-02-23T03:01:36.000Z,25.7
2019-02-23T03:03:36.000Z,25.8
2019-02-23T03:05:36.000Z,25.8
2019-02-23T03:07:36.000Z,25.7
2019-02-23T03:09:36.000Z,25.7
2019-02-23T03:10:36.000Z,25.7
2019-02-23T03:12:21.000Z,25.8
2019-02-23T03:13:36.000Z,25.8
2019-02-23T03:14:36.000Z,25.8
2019-02-23T03:16:36.000Z,25.9
2019-02-23T03:18:36.000Z,25.9
2019-02-23T03:20:21.000Z,25.9
2019-02-23T03:21:36.000Z,25.7
2019-02-23T03:22:36.000Z,25.7
2019-02-23T03:23:36.000Z,25.7
2019-02-23T03:24:36.000Z,25.7
2019-02-23T03:25:36.000Z,25.8
2019-02-23T03:26:36.000Z,25.8
2019-02-23T03:28:36.000Z,25.9
2019-02-23T03:29:36.000Z,26
2019-02-23T03:31:36.000Z,26
2019-02-23T03:33:21.000Z,26
2019-02-23T03:34:36.000Z,26
2019-02-23T03:35:36.000Z,26
2019-02-23T03:36:36.000Z,26
2019-02-23T03:38:21.000Z,26.1
2019-02-23T03:39:36.000Z,26
2019-02-23T03:40:36.000Z,26
2019-02-23T03:41:36.000Z,26
2019-02-23T03:43:36.000Z,26
2019-02-23T03:45:36.000Z,26
2019-02-23T03:47:21.000Z,25.9
2019-02-23T03:48:36.000Z,25.8
2019-02-23T03:50:36.000Z,25.8
2019-02-23T03:52:36.000Z,25.6
2019-02-23T03:53:36.000Z,25.6
2019-02-23T03:55:36.000Z,25.7
2019-02-23T03:57:36.000Z,25.7
2019-02-23T03:58:36.000Z,25.7
2019-02-23T04:00:36.000Z,25.8
2019-02-23T04:02:36.000Z,25.8
2019-02-23T04:03:36.000Z,25.8
2019-02-23T04:05:36.000Z,25.9
2019-02-23T04:06:36.000Z,25.9
2019-02-23T04:07:36.000Z,25.9
2019-02-23T04:09:36.000Z,25.9
2019-02-23T04:11:36.000Z,25.9
2019-02-23T04:12:36.000Z,25.9
2019-02-23T04:14:36.000Z,26
2019-02-23T04:15:36.000Z,26
2019-02-23T04:17:36.000Z,26
2019-02-23T04:19:36.000Z,25.9
2019-02-23T04:20:36.000Z,25.9
2019-02-23T04:22:36.000Z,25.8
2019-02-23T04:24:36.000Z,25.8
2019-02-23T04:26:36.000Z,25.7
2019-02-23T04:28:36.000Z,25.7
2019-02-23T04:30:36.000Z,25.7
2019-02-23T04:31:36.000Z,25.8
2019-02-23T04:33:21.000Z,25.8
2019-02-23T04:35:36.000Z,25.6
2019-02-23T04:36:36.000Z,25.6
2019-02-23T04:38:36.000Z,25.6
2019-02-23T04:39:36.000Z,25.7
2019-02-23T04:41:36.000Z,25.7
2019-02-23T04:42:36.000Z,25.7
2019-02-23T04:44:36.000Z,25.8
2019-02-23T04:45:36.000Z,25.8
2019-02-23T04:47:36.000Z,25.8
2019-02-23T04:48:36.000Z,25.8
2019-02-23T04:49:36.000Z,25.9
2019-02-23T04:51:36.000Z,25.9
2019-02-23T04:52:36.000Z,25.9
2019-02-23T04:54:36.000Z,25.9
2019-02-23T04:56:36.000Z,25.9
2019-02-23T04:57:36.000Z,25.9
2019-02-23T04:59:36.000Z,25.8
2019-02-23T05:00:36.000Z,25.9
2019-02-23T05:02:36.000Z,25.9
2019-02-23T05:04:20.000Z,25.9
2019-02-23T05:05:35.000Z,25.8
2019-02-23T05:07:35.000Z,25.8
2019-02-23T05:09:35.000Z,25.8
2019-02-23T05:10:35.000Z,25.8
2019-02-23T05:11:35.000Z,25.8
2019-02-23T05:13:35.000Z,25.8
2019-02-23T05:14:35.000Z,25.8
2019-02-23T05:15:35.000Z,25.9
2019-02-23T05:17:35.000Z,25.9
2019-02-23T05:19:35.000Z,25.9
2019-02-23T05:20:35.000Z,25.8
2019-02-23T05:22:35.000Z,25.8
2019-02-23T05:23:35.000Z,25.8
2019-02-23T05:25:35.000Z,25.8
2019-02-23T05:27:35.000Z,25.8
2019-02-23T05:28:35.000Z,25.8
2019-02-23T05:30:35.000Z,25.8
2019-02-23T05:32:35.000Z,25.8
2019-02-23T05:33:35.000Z,25.7
2019-02-23T05:34:35.000Z,25.8
2019-02-23T05:36:35.000Z,25.9
2019-02-23T05:38:35.000Z,25.8
2019-02-23T05:40:35.000Z,25.8
2019-02-23T05:42:35.000Z,25.7
2019-02-23T05:44:35.000Z,25.6
2019-02-23T05:45:35.000Z,25.6
2019-02-23T05:46:35.000Z,25.7
2019-02-23T05:47:35.000Z,25.8
2019-02-23T05:49:35.000Z,25.8
2019-02-23T05:51:35.000Z,25.6
2019-02-23T05:53:21.000Z,25.5
2019-02-23T05:54:35.000Z,25.4
2019-02-23T05:55:35.000Z,25.4
2019-02-23T05:57:35.000Z,25.5
2019-02-23T05:59:35.000Z,25.6
2019-02-23T06:01:35.000Z,25.6
2019-02-23T06:03:35.000Z,25.6
2019-02-23T06:05:35.000Z,25.6
2019-02-23T06:07:36.000Z,25.6
2019-02-23T06:09:36.000Z,25.6
2019-02-23T06:11:20.000Z,25.6
2019-02-23T06:12:36.000Z,25.6
2019-02-23T06:13:36.000Z,25.6
2019-02-23T06:15:36.000Z,25.7
2019-02-23T06:17:36.000Z,25.7
2019-02-23T06:19:36.000Z,25.7
2019-02-23T06:21:36.000Z,25.7
2019-02-23T06:23:36.000Z,25.6
2019-02-23T06:25:36.000Z,25.6
2019-02-23T06:27:36.000Z,25.6
2019-02-23T06:28:36.000Z,25.6
2019-02-23T06:30:36.000Z,25.7
2019-02-23T06:32:36.000Z,25.7
2019-02-23T06:34:36.000Z,25.7
2019-02-23T06:36:36.000Z,25.7
2019-02-23T06:38:36.000Z,25.7
2019-02-23T06:39:36.000Z,25.7
2019-02-23T06:40:36.000Z,25.7
2019-02-23T06:42:36.000Z,25.8
2019-02-23T06:44:36.000Z,25.8
2019-02-23T06:46:36.000Z,25.7
2019-02-23T06:47:36.000Z,25.8
2019-02-23T06:48:36.000Z,25.8
2019-02-23T06:49:36.000Z,25.9
2019-02-23T06:51:36.000Z,25.9
2019-02-23T06:53:20.000Z,25.9
2019-02-23T06:54:36.000Z,25.9
2019-02-23T06:56:36.000Z,25.9
2019-02-23T06:58:20.000Z,25.9
2019-02-23T06:59:36.000Z,25.9
2019-02-23T07:00:36.000Z,25.9
2019-02-23T07:02:20.000Z,26
2019-02-23T07:03:36.000Z,26
2019-02-23T07:05:20.000Z,26
2019-02-23T07:06:36.000Z,26
2019-02-23T07:08:36.000Z,26
2019-02-23T07:09:36.000Z,26
2019-02-23T07:11:36.000Z,26
2019-02-23T07:13:36.000Z,26
2019-02-23T07:14:36.000Z,26
2019-02-23T07:16:36.000Z,26.1
2019-02-23T07:18:36.000Z,26.2
2019-02-23T07:20:36.000Z,26.2
2019-02-23T07:22:36.000Z,26
2019-02-23T07:23:36.000Z,26
2019-02-23T07:25:36.000Z,26.1
2019-02-23T07:27:36.000Z,26.2
2019-02-23T07:28:36.000Z,26.3
2019-02-23T07:29:36.000Z,26.4
2019-02-23T07:31:36.000Z,26.5
2019-02-23T07:32:36.000Z,26.6
2019-02-23T07:34:36.000Z,26.7
2019-02-23T07:36:36.000Z,26.7
2019-02-23T07:37:36.000Z,26.7
2019-02-23T07:39:36.000Z,26.9
2019-02-23T07:40:36.000Z,26.9
2019-02-23T07:42:21.000Z,27
2019-02-23T07:43:36.000Z,27.1
2019-02-23T07:45:36.000Z,27.2
2019-02-23T07:47:36.000Z,27.3
2019-02-23T07:48:36.000Z,27.4
2019-02-23T07:50:36.000Z,27.5
2019-02-23T07:52:21.000Z,27.5
2019-02-23T07:53:36.000Z,27.5
2019-02-23T07:54:36.000Z,27.5
2019-02-23T07:56:36.000Z,27.8
2019-02-23T07:58:36.000Z,28
2019-02-23T08:00:36.000Z,28.3
2019-02-23T08:02:36.000Z,28.5
2019-02-23T08:03:36.000Z,28.6
2019-02-23T08:04:36.000Z,28.7
2019-02-23T08:06:36.000Z,28.9
2019-02-23T08:08:36.000Z,29.1
2019-02-23T08:09:36.000Z,29.2
2019-02-23T08:11:36.000Z,29.3
2019-02-23T08:12:36.000Z,29.3
2019-02-23T08:13:36.000Z,29.5
2019-02-23T08:14:36.000Z,29.6
2019-02-23T08:15:36.000Z,29.8
2019-02-23T08:17:36.000Z,30.1
2019-02-23T08:19:36.000Z,30.2
2019-02-23T08:20:36.000Z,30.3
2019-02-23T08:22:21.000Z,30.4
2019-02-23T08:23:36.000Z,30.5
2019-02-23T08:24:36.000Z,30.5
2019-02-23T08:26:21.000Z,30.8
2019-02-23T08:27:36.000Z,30.9
2019-02-23T08:29:36.000Z,31.1
2019-02-23T08:31:36.000Z,31.3
2019-02-23T08:33:36.000Z,31.5
2019-02-23T08:34:36.000Z,31.5
2019-02-23T08:36:21.000Z,31.5
2019-02-23T08:37:36.000Z,31.3
2019-02-23T08:38:36.000Z,31.2
2019-02-23T08:39:36.000Z,31.1
2019-02-23T08:41:36.000Z,30.9
2019-02-23T08:42:36.000Z,30.8
2019-02-23T08:43:36.000Z,30.7
2019-02-23T08:45:36.000Z,30.3
2019-02-23T08:47:36.000Z,29.8
2019-02-23T08:48:36.000Z,29.6
2019-02-23T08:49:36.000Z,29.4
2019-02-23T08:50:36.000Z,29.3
2019-02-23T08:52:36.000Z,29.1
2019-02-23T08:54:36.000Z,28.7
2019-02-23T08:56:36.000Z,28.5
2019-02-23T08:58:36.000Z,28.3
2019-02-23T08:59:36.000Z,28.2
2019-02-23T09:01:36.000Z,28.1
2019-02-23T09:02:36.000Z,28.1
2019-02-23T09:04:36.000Z,28
2019-02-23T09:05:36.000Z,28
2019-02-23T09:07:36.000Z,27.9
2019-02-23T09:09:36.000Z,27.7
2019-02-23T09:11:36.000Z,27.5
2019-02-23T09:12:36.000Z,27.5
2019-02-23T09:14:36.000Z,27.4
2019-02-23T09:16:36.000Z,27.3
2019-02-23T09:17:36.000Z,27.3
2019-02-23T09:18:36.000Z,27.3
2019-02-23T09:20:21.000Z,27.4
2019-02-23T09:21:36.000Z,27.3
2019-02-23T09:23:36.000Z,27.1
2019-02-23T09:25:36.000Z,27.1
2019-02-23T09:27:36.000Z,27.1
2019-02-23T09:29:36.000Z,27.1
2019-02-23T09:30:36.000Z,27.1
2019-02-23T09:31:36.000Z,27.2
2019-02-23T09:33:36.000Z,27.2
2019-02-23T09:35:21.000Z,27.2
2019-02-23T09:36:36.000Z,27.1
2019-02-23T09:37:36.000Z,27.1
2019-02-23T09:39:36.000Z,27.2
2019-02-23T09:41:36.000Z,27.2
2019-02-23T09:42:36.000Z,27.2
2019-02-23T09:43:36.000Z,27.2
2019-02-23T09:45:36.000Z,27.3
2019-02-23T09:46:36.000Z,27.3
2019-02-23T09:48:36.000Z,27.3
2019-02-23T09:50:36.000Z,27.2
2019-02-23T09:52:36.000Z,27.2
2019-02-23T09:53:36.000Z,27.2
2019-02-23T09:55:36.000Z,27.1
2019-02-23T09:57:36.000Z,27.1
2019-02-23T09:58:36.000Z,27.1
2019-02-23T10:00:36.000Z,27.1
2019-02-23T10:02:36.000Z,27.1
2019-02-23T10:03:36.000Z,27.1
2019-02-23T10:05:36.000Z,27.1
2019-02-23T10:07:36.000Z,27
2019-02-23T10:09:36.000Z,26.9
2019-02-23T10:10:36.000Z,26.9
2019-02-23T10:12:36.000Z,26.8
2019-02-23T10:14:21.000Z,26.8
2019-02-23T10:15:36.000Z,26.8
2019-02-23T10:16:36.000Z,26.8
2019-02-23T10:18:36.000Z,26.9
2019-02-23T10:20:36.000Z,26.9
2019-02-23T10:22:36.000Z,26.9
2019-02-23T10:24:21.000Z,26.6
2019-02-23T10:25:36.000Z,26.6
2019-02-23T10:27:21.000Z,26.6
2019-02-23T10:28:36.000Z,26.6
2019-02-23T10:30:36.000Z,26.6
2019-02-23T10:32:36.000Z,26.6
2019-02-23T10:33:36.000Z,26.7
2019-02-23T10:35:36.000Z,26.7
2019-02-23T10:36:36.000Z,26.7
2019-02-23T10:38:36.000Z,26.8
2019-02-23T10:40:36.000Z,26.8
2019-02-23T10:41:36.000Z,26.8
2019-02-23T10:43:36.000Z,26.9
2019-02-23T10:45:20.000Z,26.9
2019-02-23T10:46:36.000Z,26.8
2019-02-23T10:47:36.000Z,26.9
2019-02-23T10:48:36.000Z,26.9
2019-02-23T10:50:36.000Z,26.9
2019-02-23T10:51:36.000Z,26.9
2019-02-23T10:53:21.000Z,27
2019-02-23T10:54:35.000Z,26.9
2019-02-23T10:55:36.000Z,26.9
2019-02-23T10:57:36.000Z,26.9
2019-02-23T10:59:36.000Z,26.8
2019-02-23T11:01:36.000Z,26.8
2019-02-23T11:03:36.000Z,26.8
2019-02-23T11:05:36.000Z,26.8
2019-02-23T11:07:36.000Z,26.8
2019-02-23T11:09:36.000Z,26.8
2019-02-23T11:11:36.000Z,26.8
2019-02-23T11:13:36.000Z,26.7
2019-02-23T11:15:20.000Z,26.7
2019-02-23T11:16:36.000Z,26.7
2019-02-23T11:18:36.000Z,26.7
2019-02-23T11:20:36.000Z,26.7
2019-02-23T11:22:36.000Z,26.7
2019-02-23T11:24:36.000Z,26.7
2019-02-23T11:25:36.000Z,26.7
2019-02-23T11:26:36.000Z,26.8
2019-02-23T11:27:35.000Z,26.9
2019-02-23T11:29:35.000Z,26.9
2019-02-23T11:31:35.000Z,26.9
2019-02-23T11:32:35.000Z,26.9
2019-02-23T11:34:20.000Z,26.9
2019-02-23T11:35:35.000Z,26.9
2019-02-23T11:37:35.000Z,26.9
2019-02-23T11:38:35.000Z,26.9
2019-02-23T11:40:20.000Z,27
2019-02-23T11:41:35.000Z,26.9
2019-02-23T11:42:35.000Z,26.9
2019-02-23T11:44:35.000Z,26.9
2019-02-23T11:46:35.000Z,26.9
2019-02-23T11:48:35.000Z,26.8
2019-02-23T11:49:35.000Z,26.8
2019-02-23T11:50:35.000Z,26.9
2019-02-23T11:51:35.000Z,26.9
2019-02-23T11:53:35.000Z,27
2019-02-23T11:55:35.000Z,26.9
2019-02-23T11:57:35.000Z,26.8
2019-02-23T11:58:35.000Z,26.7
2019-02-23T12:00:35.000Z,26.8
2019-02-23T12:01:35.000Z,26.8
2019-02-23T12:02:35.000Z,26.9
2019-02-23T12:04:35.000Z,26.8
2019-02-23T12:06:35.000Z,26.8
2019-02-23T12:08:35.000Z,26.8
2019-02-23T12:10:35.000Z,26.8
2019-02-23T12:12:35.000Z,26.8
2019-02-23T12:14:35.000Z,26.8
2019-02-23T12:15:35.000Z,26.8
2019-02-23T12:17:20.000Z,26.9
2019-02-23T12:18:35.000Z,26.8
2019-02-23T12:19:35.000Z,26.9
2019-02-23T12:21:35.000Z,26.9
2019-02-23T12:22:35.000Z,27
2019-02-23T12:24:35.000Z,27
2019-02-23T12:25:35.000Z,27.1
2019-02-23T12:27:35.000Z,27.1
2019-02-23T12:29:35.000Z,27.1
2019-02-23T12:31:36.000Z,27.1
2019-02-23T12:32:36.000Z,27.1
2019-02-23T12:34:36.000Z,27.1
2019-02-23T12:36:36.000Z,27.1
2019-02-23T12:38:36.000Z,27
2019-02-23T12:39:36.000Z,27
2019-02-23T12:41:36.000Z,27.1
2019-02-23T12:43:36.000Z,27.1
2019-02-23T12:45:36.000Z,27
2019-02-23T12:46:36.000Z,27.1
2019-02-23T12:48:36.000Z,27
2019-02-23T12:50:36.000Z,27
2019-02-23T12:52:36.000Z,26.9
2019-02-23T12:54:36.000Z,26.9
2019-02-23T12:55:36.000Z,26.9
2019-02-23T12:57:36.000Z,27
2019-02-23T12:58:36.000Z,27.1
2019-02-23T12:59:36.000Z,27.1
2019-02-23T13:01:36.000Z,27.2
2019-02-23T13:03:36.000Z,27.1
2019-02-23T13:05:36.000Z,27
2019-02-23T13:07:21.000Z,27
2019-02-23T13:08:36.000Z,27
2019-02-23T13:10:36.000Z,27
2019-02-23T13:12:36.000Z,27
2019-02-23T13:14:36.000Z,27
2019-02-23T13:16:21.000Z,27
2019-02-23T13:17:36.000Z,27
2019-02-23T13:18:36.000Z,27.1
2019-02-23T13:19:36.000Z,27.1
2019-02-23T13:20:36.000Z,27.2
2019-02-23T13:22:36.000Z,27.3
2019-02-23T13:24:21.000Z,27.2
2019-02-23T13:25:36.000Z,27.1
2019-02-23T13:26:36.000Z,27.1
2019-02-23T13:28:21.000Z,27.2
2019-02-23T13:29:36.000Z,27.2
2019-02-23T13:31:21.000Z,27.1
2019-02-23T13:32:36.000Z,27.1
2019-02-23T13:34:36.000Z,27.1
2019-02-23T13:36:36.000Z,27
2019-02-23T13:37:36.000Z,27.1
2019-02-23T13:38:36.000Z,27.1
2019-02-23T13:39:36.000Z,27.2
2019-02-23T13:41:36.000Z,27.2
2019-02-23T13:42:36.000Z,27.2
2019-02-23T13:44:36.000Z,27.3
2019-02-23T13:46:21.000Z,27.3
2019-02-23T13:47:36.000Z,27.3
2019-02-23T13:49:21.000Z,27.2
2019-02-23T13:50:36.000Z,27.2
2019-02-23T13:51:36.000Z,27.2
2019-02-23T13:52:36.000Z,27.3
2019-02-23T13:53:36.000Z,27.3
2019-02-23T13:55:36.000Z,27.3
2019-02-23T13:56:36.000Z,27.3
2019-02-23T13:58:36.000Z,27.4
2019-02-23T14:00:36.000Z,27.4
2019-02-23T14:02:36.000Z,27.4
2019-02-23T14:03:36.000Z,27.4
2019-02-23T14:05:21.000Z,27.6
2019-02-23T14:06:36.000Z,27.7
2019-02-23T14:08:36.000Z,28
2019-02-23T14:09:36.000Z,28.2
2019-02-23T14:11:36.000Z,28.7
2019-02-23T14:13:36.000Z,29.1
2019-02-23T14:15:36.000Z,29.3
2019-02-23T14:16:36.000Z,29.4
2019-02-23T14:18:36.000Z,29.1
2019-02-23T14:19:36.000Z,28.9
2019-02-23T14:21:36.000Z,28.5
2019-02-23T14:23:21.000Z,28.3
2019-02-23T14:24:36.000Z,28.1
2019-02-23T14:26:36.000Z,27.9
2019-02-23T14:28:36.000Z,27.8
2019-02-23T14:30:36.000Z,27.6
2019-02-23T14:32:36.000Z,27.5
2019-02-23T14:33:36.000Z,27.5
2019-02-23T14:35:36.000Z,27.5
2019-02-23T14:36:36.000Z,27.5
2019-02-23T14:38:21.000Z,27.6
2019-02-23T14:39:36.000Z,27.5
2019-02-23T14:40:36.000Z,27.5
2019-02-23T14:42:21.000Z,27.6
2019-02-23T14:43:36.000Z,27.5
2019-02-23T14:45:21.000Z,27.5
2019-02-23T14:46:36.000Z,27.4
2019-02-23T14:48:36.000Z,27.3
2019-02-23T14:50:36.000Z,27.3
2019-02-23T14:52:36.000Z,27.2
2019-02-23T14:54:36.000Z,27.1
2019-02-23T14:55:36.000Z,27
2019-02-23T14:57:21.000Z,27
2019-02-23T14:58:36.000Z,26.9
2019-02-23T15:00:36.000Z,26.9
2019-02-23T15:02:36.000Z,26.9
2019-02-23T15:03:36.000Z,26.9
2019-02-23T15:04:36.000Z,27
2019-02-23T15:06:36.000Z,27
2019-02-23T15:07:36.000Z,27.1
2019-02-23T15:09:21.000Z,27.2
2019-02-23T15:10:36.000Z,27.2
2019-02-23T15:12:36.000Z,27.2
2019-02-23T15:14:36.000Z,27.1
2019-02-23T15:16:36.000Z,27.1
2019-02-23T15:18:36.000Z,27.1
2019-02-23T15:19:36.000Z,27.1
2019-02-23T15:21:21.000Z,27.1
2019-02-23T15:22:36.000Z,27
2019-02-23T15:24:36.000Z,27
2019-02-23T15:25:36.000Z,27.1
2019-02-23T15:27:21.000Z,27.1
2019-02-23T15:28:21.000Z,27.1
2019-02-23T15:29:36.000Z,27
2019-02-23T15:31:36.000Z,26.7
2019-02-23T15:33:36.000Z,26.6
2019-02-23T15:34:36.000Z,26.6
2019-02-23T15:35:36.000Z,26.7
2019-02-23T15:37:36.000Z,26.8
2019-02-23T15:38:36.000Z,26.8
2019-02-23T15:40:21.000Z,26.8
2019-02-23T15:41:36.000Z,26.7
2019-02-23T15:42:36.000Z,26.7
2019-02-23T15:44:21.000Z,26.7
2019-02-23T15:45:36.000Z,26.7
2019-02-23T15:47:36.000Z,26.6
2019-02-23T15:49:21.000Z,26.6
2019-02-23T15:50:36.000Z,26.6
2019-02-23T15:52:36.000Z,26.6
2019-02-23T15:53:36.000Z,26.6
2019-02-23T15:55:21.000Z,26.7
2019-02-23T15:56:36.000Z,26.5
2019-02-23T15:57:36.000Z,26.5
2019-02-23T15:58:36.000Z,26.6
2019-02-23T16:00:36.000Z,26.7
2019-02-23T16:01:36.000Z,26.8
2019-02-23T16:03:36.000Z,26.8
2019-02-23T16:04:36.000Z,26.8
2019-02-23T16:06:36.000Z,26.8
2019-02-23T16:08:36.000Z,26.8
2019-02-23T16:10:36.000Z,26.7
2019-02-23T16:12:36.000Z,26.6
2019-02-23T16:14:36.000Z,26.6
2019-02-23T16:16:36.000Z,26.6
2019-02-23T16:18:36.000Z,26.6
2019-02-23T16:19:36.000Z,26.6
2019-02-23T16:20:36.000Z,26.7
2019-02-23T16:22:21.000Z,26.8
2019-02-23T16:23:36.000Z,26.8
2019-02-23T16:25:36.000Z,26.8
2019-02-23T16:27:36.000Z,26.7
2019-02-23T16:29:36.000Z,26.7
2019-02-23T16:31:21.000Z,26.6
2019-02-23T16:32:36.000Z,26.6
2019-02-23T16:33:36.000Z,26.6
2019-02-23T16:35:21.000Z,26.6
2019-02-23T16:36:36.000Z,26.6
2019-02-23T16:37:36.000Z,26.6
2019-02-23T16:39:36.000Z,26.7
2019-02-23T16:41:36.000Z,26.6
2019-02-23T16:43:36.000Z,26.6
2019-02-23T16:45:36.000Z,26.7
2019-02-23T16:47:21.000Z,26.7
2019-02-23T16:48:36.000Z,26.7
2019-02-23T16:49:36.000Z,26.7
2019-02-23T16:51:21.000Z,26.8
2019-02-23T16:52:36.000Z,26.8
2019-02-23T16:53:36.000Z,26.8
2019-02-23T16:55:36.000Z,26.9
2019-02-23T16:57:36.000Z,26.9
2019-02-23T16:59:36.000Z,26.8
2019-02-23T17:01:36.000Z,26.8
2019-02-23T17:03:36.000Z,26.7
2019-02-23T17:04:36.000Z,26.7
2019-02-23T17:06:21.000Z,26.7
2019-02-23T17:07:36.000Z,26.6
2019-02-23T17:09:21.000Z,26.6
2019-02-23T17:10:36.000Z,26.5
2019-02-23T17:11:36.000Z,26.5
2019-02-23T17:13:36.000Z,26.5
2019-02-23T17:14:36.000Z,26.5
2019-02-23T17:15:36.000Z,26.6
2019-02-23T17:17:36.000Z,26.7
2019-02-23T17:18:36.000Z,26.7
2019-02-23T17:20:36.000Z,26.7
2019-02-23T17:22:36.000Z,26.6
2019-02-23T17:23:36.000Z,26.6
2019-02-23T17:25:36.000Z,26.5
2019-02-23T17:26:36.000Z,26.5
2019-02-23T17:28:36.000Z,26.5
2019-02-23T17:29:36.000Z,26.5
2019-02-23T17:31:36.000Z,26.5
2019-02-23T17:33:21.000Z,26.5
2019-02-23T17:34:36.000Z,26.4
2019-02-23T17:36:36.000Z,26.4
2019-02-23T17:37:36.000Z,26.4
2019-02-23T17:39:36.000Z,26.4
2019-02-23T17:41:36.000Z,26.4
2019-02-23T17:43:36.000Z,26.3
2019-02-23T17:44:36.000Z,26.2
2019-02-23T17:45:36.000Z,26.2
2019-02-23T17:47:21.000Z,26.3
2019-02-23T17:48:36.000Z,26.2
2019-02-23T17:50:35.000Z,26.2
2019-02-23T17:52:20.000Z,26.2
2019-02-23T17:53:35.000Z,26.3
2019-02-23T17:55:35.000Z,26.3
2019-02-23T17:56:35.000Z,26.3
2019-02-23T17:58:35.000Z,26.3
2019-02-23T17:59:35.000Z,26.3
2019-02-23T18:01:20.000Z,26.4
2019-02-23T18:02:35.000Z,26.4
2019-02-23T18:03:35.000Z,26.5
2019-02-23T18:04:35.000Z,26.5
2019-02-23T18:06:35.000Z,26.6
2019-02-23T18:07:35.000Z,26.6
2019-02-23T18:08:35.000Z,26.7
2019-02-23T18:10:35.000Z,26.8
2019-02-23T18:11:35.000Z,26.8
2019-02-23T18:13:35.000Z,26.8
2019-02-23T18:14:35.000Z,26.8
2019-02-23T18:15:35.000Z,26.8
2019-02-23T18:17:35.000Z,26.7
2019-02-23T18:19:35.000Z,26.6
2019-02-23T18:21:35.000Z,26.6
2019-02-23T18:23:20.000Z,26.6
2019-02-23T18:24:35.000Z,26.5
2019-02-23T18:26:35.000Z,26.5
2019-02-23T18:27:35.000Z,26.5
2019-02-23T18:29:20.000Z,26.6
2019-02-23T18:30:35.000Z,26.6
2019-02-23T18:31:35.000Z,26.6
2019-02-23T18:32:35.000Z,26.6
2019-02-23T18:34:35.000Z,26.6
2019-02-23T18:36:35.000Z,26.5
2019-02-23T18:38:35.000Z,26.5
2019-02-23T18:40:35.000Z,26.4
2019-02-23T18:41:35.000Z,26.4
2019-02-23T18:42:35.000Z,26.4
2019-02-23T18:43:35.000Z,26.5
2019-02-23T18:44:35.000Z,26.5
2019-02-23T18:46:35.000Z,26.6
2019-02-23T18:47:35.000Z,26.6
2019-02-23T18:48:35.000Z,26.7
2019-02-23T18:50:36.000Z,26.7
2019-02-23T18:52:35.000Z,26.6
2019-02-23T18:54:36.000Z,26.6
2019-02-23T18:55:36.000Z,26.6
2019-02-23T18:57:36.000Z,26.5
2019-02-23T18:58:36.000Z,26.4
2019-02-23T18:59:36.000Z,26.5
2019-02-23T19:01:36.000Z,26.5
2019-02-23T19:02:36.000Z,26.5
2019-02-23T19:03:36.000Z,26.5
2019-02-23T19:05:36.000Z,26.6
2019-02-23T19:07:36.000Z,26.6
2019-02-23T19:09:36.000Z,26.5
2019-02-23T19:11:36.000Z,26.5
2019-02-23T19:13:36.000Z,26.5
2019-02-23T19:14:36.000Z,26.5
2019-02-23T19:15:36.000Z,26.5
2019-02-23T19:17:21.000Z,26.5
2019-02-23T19:18:36.000Z,26.4
2019-02-23T19:19:36.000Z,26.4
2019-02-23T19:21:36.000Z,26.4
2019-02-23T19:22:36.000Z,26.5
2019-02-23T19:24:36.000Z,26.5
2019-02-23T19:26:21.000Z,26.5
2019-02-23T19:27:36.000Z,26.4
2019-02-23T19:28:36.000Z,26.3
2019-02-23T19:30:36.000Z,26.3
2019-02-23T19:32:36.000Z,26.3
2019-02-23T19:33:36.000Z,26.3
2019-02-23T19:34:36.000Z,26.3
2019-02-23T19:36:36.000Z,26.4
2019-02-23T19:37:36.000Z,26.4
2019-02-23T19:39:36.000Z,26.5
2019-02-23T19:41:36.000Z,26.4
2019-02-23T19:42:36.000Z,26.4
2019-02-23T19:44:36.000Z,26.5
2019-02-23T19:45:36.000Z,26.5
2019-02-23T19:46:36.000Z,26.5
2019-02-23T19:48:36.000Z,26.5
2019-02-23T19:49:36.000Z,26.5
2019-02-23T19:50:36.000Z,26.5
2019-02-23T19:52:36.000Z,26.5
2019-02-23T19:53:36.000Z,26.5
2019-02-23T19:54:36.000Z,26.6
2019-02-23T19:56:36.000Z,26.6
2019-02-23T19:57:36.000Z,26.6
2019-02-23T19:59:36.000Z,26.6
2019-02-23T20:00:36.000Z,26.6
2019-02-23T20:02:36.000Z,26.7
2019-02-23T20:04:36.000Z,26.6
2019-02-23T20:05:36.000Z,26.6
2019-02-23T20:07:36.000Z,26.6
2019-02-23T20:09:36.000Z,26.5
2019-02-23T20:11:36.000Z,26.4
2019-02-23T20:12:36.000Z,26.4
2019-02-23T20:13:36.000Z,26.4
2019-02-23T20:15:36.000Z,26.4
2019-02-23T20:16:36.000Z,26.4
2019-02-23T20:17:36.000Z,26.5
2019-02-23T20:18:36.000Z,26.5
2019-02-23T20:20:21.000Z,26.6
2019-02-23T20:21:36.000Z,26.5
2019-02-23T20:23:21.000Z,26.5
2019-02-23T20:24:21.000Z,26.5
2019-02-23T20:25:36.000Z,26.4
2019-02-23T20:27:36.000Z,26.4
2019-02-23T20:28:36.000Z,26.4
2019-02-23T20:30:36.000Z,26.3
2019-02-23T20:32:36.000Z,26.2
2019-02-23T20:33:36.000Z,26.2
2019-02-23T20:35:21.000Z,26.3
2019-02-23T20:36:36.000Z,26.3
2019-02-23T20:38:36.000Z,26.3
2019-02-23T20:40:36.000Z,26.2
2019-02-23T20:41:36.000Z,26.2
2019-02-23T20:43:36.000Z,26.3
2019-02-23T20:45:21.000Z,26.2
2019-02-23T20:46:36.000Z,26.2
2019-02-23T20:47:36.000Z,26.2
2019-02-23T20:49:36.000Z,26.2
2019-02-23T20:51:36.000Z,26.1
2019-02-23T20:52:36.000Z,26.1
2019-02-23T20:54:36.000Z,26.2
2019-02-23T20:55:36.000Z,26.2
2019-02-23T20:57:36.000Z,26.3
2019-02-23T20:59:21.000Z,26.3
2019-02-23T21:00:36.000Z,26.2
2019-02-23T21:02:35.000Z,26.1
2019-02-23T21:03:35.000Z,26.1
2019-02-23T21:04:35.000Z,26.2
2019-02-23T21:06:20.000Z,26.2
2019-02-23T21:07:35.000Z,26.1